Cactus Peak, Santa Catalina Island Weather observations

Data are for 10 minute period ending at time listed.
 Day   Time   Solar   Ave.   Ave.  Ave.  Vector    Max.   Stn.    Total
  of    of     Rad.   Air    Rel.  Wind   Wind     Wind   Baro.  Precip.
Year   Day            Temp.  Hum.  Speed  Dir.     Gust   Pres.         
2026   (PST)   W/m2    F      %     mph   deg.      mph    mb.     in.  
------------------------------------------------------------------------
 246   17:10  100.0    62   83.1     9    313.3    12.5    999.0   0.00  
 246   17:20   73.0    61   85.8    10    310.5    14.9    999.0   0.00  
 246   17:30   90.0    61   86.8     8    317.3    13.1    999.0   0.00  
 246   17:40   46.0    61   86.7     7    310.6    12.5    999.0   0.00  
 246   17:50   24.0    61   90.4     9    320.3    14.3    999.0   0.00  
 246   18:00   22.0    60   30.3    10    328.2    13.7    999.0   0.00  
 246   18:10   10.0    60    0.4    10    335.5    14.9    999.0   0.00  
 246   18:20    5.0    60    0.4    10    328.9    13.7    999.0   0.00  
 246   18:30    0.0    60    0.4    11    338.8    14.3    999.0   0.00  
 246   18:40    0.0    60    0.4    13    345.6    16.7    999.0   0.00  
 246   18:50    0.0    60    0.4    13    354.5    16.7    999.0   0.00  
 246   19:00    0.0    60    0.4    13    354.7    16.7    999.0   0.00  
 246   19:10    0.0    60    0.4    13    359.6    17.3    999.0   0.00  
 246   19:20    0.0    60    0.4    14    359.5    17.9    999.0   0.00  
 246   19:30    0.0    60    0.4    13    357.8    17.9    999.0   0.00  
 246   19:40    0.0    60    0.4    14    351.8    19.7    999.0   0.00  
 246   19:50    0.0    60    0.4    12    358.2    18.5    999.0   0.00  
 246   20:00    0.0    60    0.4    12      0.9    15.5    999.0   0.00  
 246   20:10    0.0    60    0.4    12      5.5    14.9    999.0   0.00  
 246   20:20    0.0    60    0.4    11      4.2    14.3    999.0   0.00  
 246   20:30    0.0    60    0.4    11      6.9    13.7    999.0   0.00  
 246   20:40    0.0    60    0.4    11      5.2    14.3    999.0   0.00  
 246   20:50    0.0    59   65.2    10      2.0    13.1    999.0   0.00  
 246   21:00    0.0    59   99.9     9      5.2    11.9    999.0   0.00  
 246   21:10    0.0    59   99.9     9    353.5    11.3    999.0   0.00  
 246   21:20    0.0    59   99.9     8      6.5    10.2    999.0   0.00  
 246   21:30    0.0    59   99.9     8    358.7    10.8    999.0   0.00  
 246   21:40    0.0    59   99.9     8    343.7    10.2    999.0   0.00  
 246   21:50    0.0    59   99.9     8    341.0    10.2    999.0   0.00  
 246   22:00    0.0    59   99.9     5    343.6     7.2    999.0   0.00  
 246   22:10    0.0    59   99.9     2    348.5     6.0    999.0   0.00  
 246   22:20    0.0    59   99.9     1    284.9     0.6    999.0   0.00  
 246   22:30    0.0    59   10.4     1    293.8     0.6    999.0   0.00  
 246   22:40    0.0    59    0.4     2    327.2     4.8    999.0   0.00  
 246   22:50    0.0    59   21.8     3    331.7     5.4    999.0   0.00  
 246   23:00    0.0    59   45.6     4    327.9     6.0    999.0   0.00  
 246   23:10    0.0    59    0.4     4    317.6     6.0    999.0   0.00  
 246   23:20    0.0    59    0.4     6    326.2     7.2    999.0   0.00  
 246   23:30    0.0    59    6.7     6    338.7     7.8    999.0   0.00  
 246   23:40    0.0    59   88.0     6      6.9     7.2    999.0   0.00  
 246   23:50    0.0    59   99.9     6     15.1     7.8    999.0   0.00  
 247    0:00    0.0    59   99.9     6     13.0     6.6    999.0   0.00  
 247    0:10    0.0    59   99.9     3      9.4     6.6    999.0   0.00  
 247    0:20    0.0    59   99.9     4      7.8     6.0    999.0   0.00  
 247    0:30    0.0    59   99.9     3    329.1     5.4    999.0   0.00  
 247    0:40    0.0    59   99.9     1    331.7     0.6    999.0   0.00  
 247    0:50    0.0    59   99.9     1    325.4     0.6    999.0   0.00  
 247    1:00    0.0    59   99.9     1    342.8     0.6    999.0   0.00  
 247    1:10    0.0    59   99.9     1    342.9     0.6    999.0   0.00  
 247    1:20    0.0    60   99.9     1    346.5     0.6    999.0   0.00  
 247    1:30    0.0    60   99.9     1    317.0     0.6    999.0   0.00  
 247    1:40    0.0    59   99.9     4    319.5     6.0    999.0   0.00  
 247    1:50    0.0    59   99.9     5    329.5     6.6    999.0   0.00  
 247    2:00    0.0    59   99.9     4    314.1     6.6    999.0   0.00  
 247    2:10    0.0    59   99.9     1    316.2     0.6    999.0   0.00  
 247    2:20    0.0    59   99.9     1    314.4     0.6    999.0   0.00  
 247    2:30    0.0    59   99.9     1    298.5     0.6    999.0   0.00  
 247    2:40    0.0    59   99.9     1    323.3     0.6    999.0   0.00  
 247    2:50    0.0    59   99.9     1     12.9     0.6    999.0   0.00  
 247    3:00    0.0    59   30.8     1    358.9     0.6    999.0   0.00  
 247    3:10    0.0    59    0.4     1    346.6     0.6    999.0   0.00  
 247    3:20    0.0    59    0.4     1    294.9     0.6    999.0   0.00  
 247    3:30    0.0    59    0.4     1    293.9     0.6    999.0   0.00  
 247    3:40    0.0    59    0.4     1    315.4     0.6    999.0   0.00  
 247    3:50    0.0    59    0.4     1    360.0     0.6    999.0   0.00  
 247    4:00    0.0    59    0.4     1      6.2     0.6    999.0   0.00  
 247    4:10    0.0    59    0.4     1      3.7     0.6    999.0   0.00  
 247    4:20    0.0    59    0.4     1     15.6     0.6    999.0   0.00  
 247    4:30    0.0    59    0.4     1    105.1     0.6    999.0   0.00  
 247    4:40    0.0    60    0.4     1    162.9     0.6    999.0   0.00  
 247    4:50    0.0    60    0.4     1    157.9     0.6    999.0   0.00  
 247    5:00    0.0    60    0.4     1    300.9     0.6    999.0   0.00  
 247    5:10    0.0    59    0.4     1    340.0     0.6    999.0   0.00  
 247    5:20    0.0    59    0.4     1    315.8     0.6    999.0   0.00  
 247    5:30    2.0    59    0.4     1      9.9     0.6    999.0   0.00  
 247    5:40    7.0    59    0.4     1     45.2     0.6    999.0   0.00  
 247    5:50   18.0    60    0.4     1     54.3     0.6    999.0   0.00  
 247    6:00   33.0    60    0.4     1     57.1     0.6    999.0   0.00  
 247    6:10   82.0    60    3.4     1     34.5     0.6    999.0   0.00  
 247    6:20  114.0    61   95.9     1     42.6     0.6    999.0   0.00  
 247    6:30  141.0    62   84.4     1     72.7     0.6    999.0   0.00  
 247    6:40  154.0    63   84.0     1     91.3     0.6    999.0   0.00  
 247    6:50   98.0    62   85.2     1    128.1     0.6    999.0   0.00  
 247    7:00  205.0    62   86.9     1    172.3     0.6    999.0   0.00  
 247    7:10  149.0    62   85.2     1    168.1     0.6    999.0   0.00  
 247    7:20  170.0    63   85.2     1    160.0     0.6    999.0   0.00  
 247    7:30  251.0    63   85.5     1    163.7     0.6    999.0   0.00  
 247    7:40  289.0    62   88.1     1    154.0     6.0    999.0   0.00  
 247    7:50  196.0    63   86.1     1    167.2     0.6    999.0   0.00  
 247    8:00  400.0    63   84.7     2    180.0     7.2    999.0   0.00  
 247    8:10  530.0    63   83.7     3    181.5     7.8    999.0   0.00  
 247    8:20  541.0    64   82.8     6    191.2     9.6    999.0   0.00  
 247    8:30  405.0    64   81.6     5    180.9     8.4    999.0   0.00  
 247    8:40  366.0    63   82.6     5    180.3    11.3    999.0   0.00  
 247    8:50  475.0    63   84.1     8    185.4    13.7    999.0   0.00  
 247    9:00  628.0    64   82.2     7    194.1    11.9    999.0   0.00  
 247    9:10  654.0    64   80.2     7    184.9    10.8    999.0   0.00  
 247    9:20  606.0    64   80.1     6    196.3    10.8    999.0   0.00  
 247    9:30  693.0    65   78.5     9    187.5    13.1    999.0   0.00  
 247    9:40  741.0    65   76.7     8    172.7    12.5    999.0   0.00  
 247    9:50  670.0    65   76.7     9    169.5    14.3    999.0   0.00  
 247   10:00  789.0    65   77.0     9    167.9    13.1    999.0   0.00  
 247   10:10  809.0    66   75.1     9    171.7    17.3    999.0   0.00  
 247   10:20  760.0    65   77.0    10    174.4    15.5    999.0   0.00  
 247   10:30  667.0    66   75.0     9    175.6    15.5    999.0   0.00  
 247   10:40  850.0    66   76.3    10    176.1    15.5    999.0   0.00  
 247   10:50  848.0    67   72.2    10    175.3    17.3    999.0   0.00  
 247   11:00  886.0    66   75.1    12    180.8    19.1    999.0   0.00  
 247   11:10  891.0    66   74.2    10    180.3    20.9    999.0   0.00  
 247   11:20  871.0    66   74.5    10    187.4    16.1    999.0   0.00  
 247   11:30  867.0    66   73.7    10    188.4    16.7    999.0   0.00  
 247   11:40  817.0    67   72.6    10    185.7    16.1    999.0   0.00  
 247   11:50  874.0    67   71.0    10    183.7    15.5    999.0   0.00  
 247   12:00  875.0    67   72.5     9    182.0    16.7    999.0   0.00  
 247   12:10  872.0    67   72.3    10    191.1    16.7    999.0   0.00  
 247   12:20  868.0    67   72.3     8    190.3    13.1    999.0   0.00  
 247   12:30  863.0    67   70.5     5    177.9    11.3    999.0   0.00  
 247   12:40  856.0    68   70.3    10    185.3    17.3    999.0   0.00  
 247   12:50  847.0    67   71.7    11    180.4    17.3    999.0   0.00  
 247   13:00  836.0    68   70.4    11    186.1    15.5    999.0   0.00  
 247   13:10  825.0    67   72.8    10    192.4    15.5    999.0   0.00  
 247   13:20  811.0    67   71.9     9    184.5    13.7    999.0   0.00  
 247   13:30  796.0    67   71.9     9    198.7    14.9    999.0   0.00  
 247   13:40  779.0    68   71.7     8    198.6    14.3    999.0   0.00  
 247   13:50  761.0    68   72.3     8    204.0    11.9    999.0   0.00  
 247   14:00  741.0    69   69.8     8    190.5    11.9    999.0   0.00  
 247   14:10  719.0    68   70.8    10    186.9    14.9    999.0   0.00  
 247   14:20  696.0    67   73.0    11    194.3    16.7    999.0   0.00  
 247   14:30  672.0    67   73.1    11    188.2    17.9    999.0   0.00  
 247   14:40  648.0    68   71.4     9    183.0    14.9    999.0   0.00  
 247   14:50  621.0    68   70.3     8    208.5    13.1    999.0   0.00  
 247   15:00  593.0    69   70.1    10    207.1    17.3    999.0   0.00  
 247   15:10  566.0    67   74.9    13    191.5    17.9    999.0   0.00  
 247   15:20  536.0    66   76.6    10    184.0    13.7    999.0   0.00  
 247   15:30  505.0    67   74.2     5    192.3    11.3    999.0   0.00  
 247   15:40  476.0    68   71.7     4    223.9    11.3    999.0   0.00  
 247   15:50  445.0    68   72.2     7    209.3    12.5    999.0   0.00  
 247   16:00  413.0    68   71.4     6    229.8    10.2    999.0   0.00  
 247   16:10  381.0    70   66.0     4    274.9     7.2    999.0   0.00  
 247   16:20  348.0    70   66.1     5    234.5     9.6    999.0   0.00  
 247   16:30  316.0    70   66.9     6    311.8    10.2    999.0   0.00  
 247   16:40  283.0    69   69.1     9    334.4    12.5    999.0   0.00  
 247   16:50  249.0    68   73.1     9    353.5    11.3    999.0   0.00  
 247   17:00  216.0    67   77.1    10      0.1    13.1    999.0   0.00  

Return to Cactus Peak graphs page.


Western Regional Climate Center,wrcc@dri.edu